Time,TemperatureF,DewpointF,PressureIn,WindDirection,WindDirectionDegrees,WindSpeedMPH,WindSpeedGustMPH,Humidity,HourlyPrecipIn,Conditions,Clouds,dailyrainin,SoftwareType,DateUTC
2013-03-03 00:00:00,42.4,34.7,30.27,NNW,337,0.0,5.8,74,0.00,,,0.02,open2300-1.11,2013-03-03 08:00:00,
2013-03-03 00:10:00,41.9,34.5,30.27,NNW,337,2.0,2.0,75,0.00,,,0.02,open2300-1.11,2013-03-03 08:10:00,
2013-03-03 00:20:00,41.5,34.2,30.27,NNW,337,0.0,2.0,75,0.00,,,0.02,open2300-1.11,2013-03-03 08:20:00,
2013-03-03 00:30:00,41.4,34.0,30.28,NNW,337,0.0,0.0,75,0.00,,,0.02,open2300-1.11,2013-03-03 08:30:00,
2013-03-03 00:40:00,40.3,33.3,30.28,NNW,337,0.0,1.3,76,0.00,,,0.02,open2300-1.11,2013-03-03 08:40:00,
2013-03-03 00:50:00,40.3,33.6,30.29,NNW,337,0.0,4.7,77,0.00,,,0.02,open2300-1.11,2013-03-03 08:50:00,
2013-03-03 01:00:00,40.5,33.8,30.29,NW,315,0.0,1.3,77,0.00,,,0.02,open2300-1.11,2013-03-03 09:00:00,
2013-03-03 01:10:00,40.5,33.8,30.29,NW,315,0.0,2.0,77,0.00,,,0.02,open2300-1.11,2013-03-03 09:10:00,
2013-03-03 01:20:00,40.6,33.9,30.30,NNE,22,0.0,0.0,77,0.00,,,0.02,open2300-1.11,2013-03-03 09:20:00,
2013-03-03 01:30:00,39.9,33.3,30.30,NNE,22,0.0,0.0,77,0.00,,,0.02,open2300-1.11,2013-03-03 09:30:00,
2013-03-03 01:40:00,39.2,32.9,30.31,NW,315,0.0,0.0,78,0.00,,,0.02,open2300-1.11,2013-03-03 09:40:00,
2013-03-03 01:50:00,39.0,33.1,30.31,NW,315,0.0,0.0,79,0.00,,,0.02,open2300-1.11,2013-03-03 09:50:00,
2013-03-03 02:00:00,39.0,33.1,30.31,NNW,337,0.0,0.0,79,0.00,,,0.02,open2300-1.11,2013-03-03 10:00:00,
2013-03-03 02:10:00,39.0,33.1,30.31,NNW,337,0.0,0.0,79,0.00,,,0.02,open2300-1.11,2013-03-03 10:10:00,
2013-03-03 02:20:00,39.0,33.4,30.32,NW,315,0.0,0.0,80,0.00,,,0.02,open2300-1.11,2013-03-03 10:20:00,
2013-03-03 02:30:00,39.0,33.4,30.32,NW,315,0.0,0.0,80,0.00,,,0.02,open2300-1.11,2013-03-03 10:30:00,
2013-03-03 02:40:00,39.0,33.4,30.32,NW,315,0.0,0.0,80,0.00,,,0.02,open2300-1.11,2013-03-03 10:40:00,
2013-03-03 02:50:00,177.6,99.9,30.31,NW,315,0.0,0.0,110,0.00,,,0.02,open2300-1.11,2013-03-03 10:50:00,
2013-03-03 03:10:00,39.4,34.1,30.31,NNW,337,0.0,114.1,81,0.00,,,0.02,open2300-1.11,2013-03-03 11:10:00,
2013-03-03 03:20:00,39.4,34.1,30.31,North,0,0.0,0.0,81,0.00,,,0.02,open2300-1.11,2013-03-03 11:20:00,
2013-03-03 03:30:00,39.2,33.6,30.31,North,0,0.0,0.0,80,0.00,,,0.02,open2300-1.11,2013-03-03 11:30:00,
2013-03-03 03:40:00,38.5,32.9,30.30,North,0,0.0,0.0,80,0.00,,,0.02,open2300-1.11,2013-03-03 11:40:00,
2013-03-03 03:50:00,38.1,32.8,30.30,NW,315,0.0,0.0,81,0.00,,,0.02,open2300-1.11,2013-03-03 11:50:00,
2013-03-03 04:00:00,37.9,32.7,30.30,NW,315,0.0,0.0,81,0.00,,,0.02,open2300-1.11,2013-03-03 12:00:00,
2013-03-03 04:10:00,37.6,32.3,30.30,WNW,292,0.0,0.0,81,0.00,,,0.02,open2300-1.11,2013-03-03 12:10:00,
2013-03-03 04:20:00,37.0,32.0,30.30,WNW,292,0.0,0.0,82,0.00,,,0.02,open2300-1.11,2013-03-03 12:20:00,
2013-03-03 04:30:00,36.7,31.7,30.30,WNW,292,0.0,0.0,82,0.00,,,0.02,open2300-1.11,2013-03-03 12:30:00,
2013-03-03 04:40:00,35.8,30.8,30.30,WNW,292,0.0,0.0,82,0.00,,,0.02,open2300-1.11,2013-03-03 12:40:00,
2013-03-03 04:50:00,35.4,30.4,30.30,WNW,292,0.0,0.0,82,0.00,,,0.02,open2300-1.11,2013-03-03 12:50:00,
2013-03-03 05:00:00,34.9,29.9,30.30,WNW,292,0.0,0.0,82,0.00,,,0.02,open2300-1.11,2013-03-03 13:00:00,
2013-03-03 05:10:00,34.3,29.6,30.30,WNW,292,0.0,0.0,83,0.00,,,0.02,open2300-1.11,2013-03-03 13:10:00,
2013-03-03 05:20:00,34.3,29.6,30.30,WNW,292,0.0,0.0,83,0.00,,,0.02,open2300-1.11,2013-03-03 13:20:00,
2013-03-03 05:30:00,33.6,29.2,30.30,WNW,292,0.0,0.0,84,0.00,,,0.02,open2300-1.11,2013-03-03 13:30:00,
2013-03-03 05:40:00,33.4,29.0,30.31,NW,315,0.0,0.0,84,0.00,,,0.02,open2300-1.11,2013-03-03 13:40:00,
2013-03-03 05:50:00,33.4,29.0,30.31,NNW,337,0.0,0.0,84,0.00,,,0.02,open2300-1.11,2013-03-03 13:50:00,
2013-03-03 06:00:00,33.3,28.9,30.31,NNW,337,0.0,0.0,84,0.00,,,0.02,open2300-1.11,2013-03-03 14:00:00,
2013-03-03 06:10:00,33.1,29.0,30.31,NW,315,0.0,0.0,85,0.00,,,0.02,open2300-1.11,2013-03-03 14:10:00,
2013-03-03 06:20:00,32.7,28.4,30.31,NNW,337,0.0,0.0,84,0.00,,,0.02,open2300-1.11,2013-03-03 14:20:00,
2013-03-03 06:30:00,32.5,28.2,30.31,North,0,0.0,0.0,84,0.00,,,0.02,open2300-1.11,2013-03-03 14:30:00,
2013-03-03 06:40:00,32.4,28.4,30.32,North,0,0.0,0.0,85,0.00,,,0.02,open2300-1.11,2013-03-03 14:40:00,
2013-03-03 06:50:00,32.2,28.2,30.32,North,0,0.0,0.0,85,0.00,,,0.02,open2300-1.11,2013-03-03 14:50:00,
2013-03-03 07:00:00,32.0,28.0,30.32,North,0,0.0,0.0,85,0.00,,,0.02,open2300-1.11,2013-03-03 15:00:00,
2013-03-03 07:10:00,32.2,28.2,30.33,North,0,0.0,0.0,85,0.00,,,0.02,open2300-1.11,2013-03-03 15:10:00,
2013-03-03 07:20:00,32.4,28.6,30.33,North,0,0.0,0.0,86,0.00,,,0.02,open2300-1.11,2013-03-03 15:20:00,
2013-03-03 07:30:00,33.1,29.3,30.32,NW,315,0.0,0.0,86,0.00,,,0.02,open2300-1.11,2013-03-03 15:30:00,
2013-03-03 07:40:00,33.8,30.2,30.33,NW,315,0.0,0.0,87,0.00,,,0.02,open2300-1.11,2013-03-03 15:40:00,
2013-03-03 07:50:00,34.5,31.0,30.33,NNW,337,0.0,0.0,87,0.00,,,0.02,open2300-1.11,2013-03-03 15:50:00,
2013-03-03 08:00:00,35.4,31.9,30.33,NW,315,0.0,0.0,87,0.00,,,0.02,open2300-1.11,2013-03-03 16:00:00,
2013-03-03 08:10:00,36.1,32.6,30.33,NW,315,0.0,0.0,87,0.00,,,0.02,open2300-1.11,2013-03-03 16:10:00,
2013-03-03 08:20:00,36.3,32.5,30.33,NW,315,0.0,0.0,86,0.00,,,0.02,open2300-1.11,2013-03-03 16:20:00,
2013-03-03 08:30:00,37.9,34.1,30.33,NNW,337,0.0,1.3,86,0.00,,,0.02,open2300-1.11,2013-03-03 16:30:00,
2013-03-03 08:40:00,38.5,34.3,30.33,NNW,337,0.0,1.8,85,0.00,,,0.02,open2300-1.11,2013-03-03 16:40:00,
2013-03-03 08:50:00,39.4,34.9,30.33,NNW,337,0.0,0.0,84,0.00,,,0.02,open2300-1.11,2013-03-03 16:50:00,
2013-03-03 09:00:00,39.9,35.4,30.33,NW,315,0.0,0.0,84,0.00,,,0.02,open2300-1.11,2013-03-03 17:00:00,
2013-03-03 09:10:00,41.2,36.0,30.33,NW,315,0.0,1.1,82,0.00,,,0.02,open2300-1.11,2013-03-03 17:10:00,
2013-03-03 09:20:00,41.9,36.5,30.33,North,0,0.0,1.1,81,0.00,,,0.02,open2300-1.11,2013-03-03 17:20:00,
2013-03-03 09:30:00,42.6,36.5,30.33,NNW,337,0.0,5.4,79,0.00,,,0.02,open2300-1.11,2013-03-03 17:30:00,
2013-03-03 09:40:00,43.5,37.1,30.33,NNW,337,0.0,7.2,78,0.00,,,0.02,open2300-1.11,2013-03-03 17:40:00,
2013-03-03 09:50:00,44.4,37.3,30.33,North,0,0.0,0.0,76,0.00,,,0.02,open2300-1.11,2013-03-03 17:50:00,
2013-03-03 10:00:00,45.1,37.0,30.33,NE,45,0.0,7.4,73,0.00,,,0.02,open2300-1.11,2013-03-03 18:00:00,
2013-03-03 10:10:00,46.0,37.2,30.33,North,0,2.9,6.3,71,0.00,,,0.02,open2300-1.11,2013-03-03 18:10:00,
2013-03-03 10:20:00,46.2,36.6,30.33,NNE,22,6.7,7.4,69,0.00,,,0.02,open2300-1.11,2013-03-03 18:20:00,
2013-03-03 10:30:00,46.8,36.8,30.33,NE,45,5.6,6.7,68,0.00,,,0.02,open2300-1.11,2013-03-03 18:30:00,
2013-03-03 10:40:00,47.7,36.8,30.33,East,90,0.0,6.9,66,0.00,,,0.02,open2300-1.11,2013-03-03 18:40:00,
2013-03-03 10:50:00,48.4,36.0,30.33,ENE,67,0.0,7.4,62,0.00,,,0.02,open2300-1.11,2013-03-03 18:50:00,
2013-03-03 11:00:00,48.6,35.4,30.33,NE,45,0.0,9.4,60,0.00,,,0.02,open2300-1.11,2013-03-03 19:00:00,
2013-03-03 11:10:00,48.7,34.6,30.32,NNE,22,6.7,7.6,58,0.00,,,0.02,open2300-1.11,2013-03-03 19:10:00,
2013-03-03 11:20:00,49.6,35.4,30.32,North,0,7.2,9.2,58,0.00,,,0.02,open2300-1.11,2013-03-03 19:20:00,
2013-03-03 11:30:00,49.6,35.0,30.32,NNE,22,4.0,8.3,57,0.00,,,0.02,open2300-1.11,2013-03-03 19:30:00,
2013-03-03 11:40:00,50.2,34.6,30.31,NNE,22,0.0,8.7,55,0.00,,,0.02,open2300-1.11,2013-03-03 19:40:00,
2013-03-03 11:50:00,49.1,34.0,30.31,North,0,8.3,10.5,56,0.00,,,0.02,open2300-1.11,2013-03-03 19:50:00,
2013-03-03 12:00:00,48.9,33.4,30.31,ENE,67,0.0,8.5,55,0.00,,,0.02,open2300-1.11,2013-03-03 20:00:00,
2013-03-03 12:10:00,49.3,34.2,30.31,East,90,0.0,7.6,56,0.00,,,0.02,open2300-1.11,2013-03-03 20:10:00,
2013-03-03 12:20:00,48.6,33.1,30.31,NNE,22,6.7,8.5,55,0.00,,,0.02,open2300-1.11,2013-03-03 20:20:00,
2013-03-03 12:30:00,48.4,32.4,30.30,NNW,337,6.5,7.6,54,0.00,,,0.02,open2300-1.11,2013-03-03 20:30:00,
2013-03-03 12:40:00,48.9,32.9,30.30,NNW,337,9.6,9.6,54,0.00,,,0.02,open2300-1.11,2013-03-03 20:40:00,
2013-03-03 12:50:00,50.2,34.1,30.30,NNE,22,13.4,14.5,54,0.00,,,0.02,open2300-1.11,2013-03-03 20:50:00,
2013-03-03 13:00:00,50.2,33.7,30.30,NNW,337,5.4,13.4,53,0.00,,,0.02,open2300-1.11,2013-03-03 21:00:00,
2013-03-03 13:10:00,49.6,33.2,30.30,NW,315,5.1,12.5,53,0.00,,,0.02,open2300-1.11,2013-03-03 21:10:00,
2013-03-03 13:20:00,49.8,32.9,30.29,NE,45,13.0,13.0,52,0.00,,,0.02,open2300-1.11,2013-03-03 21:20:00,
2013-03-03 13:30:00,49.8,32.9,30.29,NNW,337,9.8,13.0,52,0.00,,,0.02,open2300-1.11,2013-03-03 21:30:00,
2013-03-03 13:40:00,49.5,32.5,30.29,WNW,292,4.2,9.8,52,0.00,,,0.02,open2300-1.11,2013-03-03 21:40:00,
2013-03-03 13:50:00,49.3,31.9,30.29,North,0,5.1,11.0,51,0.00,,,0.02,open2300-1.11,2013-03-03 21:50:00,
2013-03-03 14:00:00,49.8,32.9,30.28,North,0,6.7,9.2,52,0.00,,,0.02,open2300-1.11,2013-03-03 22:00:00,
2013-03-03 14:10:00,50.0,33.1,30.28,NW,315,6.9,8.7,52,0.00,,,0.02,open2300-1.11,2013-03-03 22:10:00,
2013-03-03 14:20:00,49.8,32.5,30.28,North,0,11.0,11.9,51,0.00,,,0.02,open2300-1.11,2013-03-03 22:20:00,
2013-03-03 14:30:00,49.6,32.3,30.28,NNW,337,6.7,11.0,51,0.00,,,0.02,open2300-1.11,2013-03-03 22:30:00,
2013-03-03 14:40:00,49.8,32.0,30.28,NNW,337,6.5,11.9,50,0.00,,,0.02,open2300-1.11,2013-03-03 22:40:00,
2013-03-03 14:50:00,49.8,32.0,30.28,NNW,337,8.5,9.4,50,0.00,,,0.02,open2300-1.11,2013-03-03 22:50:00,
2013-03-03 15:00:00,49.6,32.3,30.28,NNW,337,10.1,10.7,51,0.00,,,0.02,open2300-1.11,2013-03-03 23:00:00,
2013-03-03 15:10:00,49.6,32.3,30.28,North,0,6.7,10.1,51,0.00,,,0.02,open2300-1.11,2013-03-03 23:10:00,
2013-03-03 15:20:00,49.3,30.9,30.28,North,0,11.9,14.3,49,0.00,,,0.02,open2300-1.11,2013-03-03 23:20:00,
2013-03-03 15:30:00,49.3,30.9,30.28,NW,315,16.3,16.3,49,0.00,,,0.02,open2300-1.11,2013-03-03 23:30:00,
2013-03-03 15:40:00,177.1,99.9,30.28,NW,315,0.0,0.0,110,0.00,,,0.02,open2300-1.11,2013-03-03 23:40:00,
2013-03-03 15:50:00,49.6,30.7,30.27,North,0,8.3,114.1,48,0.00,,,0.02,open2300-1.11,2013-03-03 23:50:00,
2013-03-03 16:00:00,49.6,30.7,30.27,NNW,337,9.4,11.2,48,0.00,,,0.02,open2300-1.11,2013-03-04 00:00:00,
2013-03-03 16:10:00,49.3,30.3,30.27,NW,315,6.7,13.9,48,0.00,,,0.02,open2300-1.11,2013-03-04 00:10:00,
2013-03-03 16:20:00,49.3,30.3,30.27,NNE,22,8.5,11.0,48,0.00,,,0.02,open2300-1.11,2013-03-04 00:20:00,
2013-03-03 16:30:00,49.1,30.7,30.27,NNW,337,5.1,8.5,49,0.00,,,0.02,open2300-1.11,2013-03-04 00:30:00,
2013-03-03 16:40:00,48.9,30.5,30.26,NNW,337,7.6,12.1,49,0.00,,,0.02,open2300-1.11,2013-03-04 00:40:00,
2013-03-03 16:50:00,48.9,31.1,30.26,NNW,337,3.1,9.4,50,0.00,,,0.02,open2300-1.11,2013-03-04 00:50:00,
2013-03-03 17:00:00,48.4,30.6,30.25,North,0,6.7,12.3,50,0.00,,,0.02,open2300-1.11,2013-03-04 01:00:00,
2013-03-03 17:10:00,48.0,30.7,30.25,NNW,337,2.5,8.9,51,0.00,,,0.02,open2300-1.11,2013-03-04 01:10:00,
2013-03-03 17:20:00,47.5,30.2,30.25,North,0,4.9,7.2,51,0.00,,,0.02,open2300-1.11,2013-03-04 01:20:00,
2013-03-03 17:30:00,47.3,30.5,30.25,NNW,337,0.0,4.9,52,0.00,,,0.02,open2300-1.11,2013-03-04 01:30:00,
2013-03-03 17:40:00,176.9,99.9,30.26,NNW,337,0.0,0.0,110,0.00,,,0.02,open2300-1.11,2013-03-04 01:40:00,
2013-03-03 18:00:00,45.7,30.4,30.25,North,0,0.0,6.3,55,0.00,,,0.00,open2300-1.11,2013-03-04 02:00:00,
2013-03-03 18:10:00,45.1,29.9,30.25,NNW,337,0.0,6.9,55,0.00,,,0.00,open2300-1.11,2013-03-04 02:10:00,
2013-03-03 18:20:00,44.6,29.8,30.25,NNW,337,0.0,6.9,56,0.00,,,0.00,open2300-1.11,2013-03-04 02:20:00,
2013-03-03 18:30:00,44.2,29.9,30.25,North,0,0.4,6.7,57,0.00,,,0.00,open2300-1.11,2013-03-04 02:30:00,
2013-03-03 18:40:00,43.7,29.9,30.25,NNW,337,6.0,7.8,58,0.00,,,0.00,open2300-1.11,2013-03-04 02:40:00,
2013-03-03 18:50:00,43.5,29.7,30.25,NNW,337,0.0,7.2,58,0.00,,,0.00,open2300-1.11,2013-03-04 02:50:00,
2013-03-03 19:00:00,43.3,29.9,30.25,North,0,2.0,8.3,59,0.00,,,0.00,open2300-1.11,2013-03-04 03:00:00,
2013-03-03 19:10:00,43.2,30.2,30.25,NNW,337,1.8,7.6,60,0.00,,,0.00,open2300-1.11,2013-03-04 03:10:00,
2013-03-03 19:20:00,43.0,30.0,30.25,North,0,0.0,7.4,60,0.00,,,0.00,open2300-1.11,2013-03-04 03:20:00,
2013-03-03 19:30:00,42.6,30.1,30.25,NNW,337,0.0,6.5,61,0.00,,,0.00,open2300-1.11,2013-03-04 03:30:00,
2013-03-03 19:40:00,42.6,30.1,30.25,NNW,337,6.0,7.4,61,0.00,,,0.00,open2300-1.11,2013-03-04 03:40:00,
2013-03-03 19:50:00,42.4,30.3,30.25,NNW,337,8.5,9.2,62,0.00,,,0.00,open2300-1.11,2013-03-04 03:50:00,
2013-03-03 20:00:00,42.4,30.3,30.25,NNW,337,4.5,8.7,62,0.00,,,0.00,open2300-1.11,2013-03-04 04:00:00,
2013-03-03 20:10:00,42.3,30.1,30.25,NNW,337,2.7,7.4,62,0.00,,,0.00,open2300-1.11,2013-03-04 04:10:00,
2013-03-03 20:20:00,41.9,30.2,30.25,North,0,3.6,7.8,63,0.00,,,0.00,open2300-1.11,2013-03-04 04:20:00,
2013-03-03 20:30:00,41.5,29.8,30.25,North,0,0.0,7.4,63,0.00,,,0.00,open2300-1.11,2013-03-04 04:30:00,
2013-03-03 20:40:00,41.4,30.1,30.25,North,0,2.9,6.9,64,0.00,,,0.00,open2300-1.11,2013-03-04 04:40:00,
2013-03-03 20:50:00,40.8,29.5,30.25,NNW,337,0.0,4.7,64,0.00,,,0.00,open2300-1.11,2013-03-04 04:50:00,
2013-03-03 21:00:00,40.6,29.8,30.25,NNW,337,0.0,2.9,65,0.00,,,0.00,open2300-1.11,2013-03-04 05:00:00,
2013-03-03 21:10:00,40.1,29.2,30.25,NNW,337,0.0,2.5,65,0.00,,,0.00,open2300-1.11,2013-03-04 05:10:00,
2013-03-03 21:20:00,39.9,29.4,30.25,NW,315,0.0,0.0,66,0.00,,,0.00,open2300-1.11,2013-03-04 05:20:00,
2013-03-03 21:30:00,39.6,29.4,30.25,NW,315,0.0,2.2,67,0.00,,,0.00,open2300-1.11,2013-03-04 05:30:00,
2013-03-03 21:40:00,39.0,29.3,30.25,NW,315,0.0,4.9,68,0.00,,,0.00,open2300-1.11,2013-03-04 05:40:00,
2013-03-03 21:50:00,38.8,29.5,30.24,NNW,337,2.9,6.3,69,0.00,,,0.00,open2300-1.11,2013-03-04 05:50:00,
2013-03-03 22:00:00,38.5,29.5,30.24,NNW,337,0.0,4.7,70,0.00,,,0.00,open2300-1.11,2013-03-04 06:00:00,
2013-03-03 22:10:00,38.5,29.9,30.24,NW,315,0.0,8.1,71,0.00,,,0.00,open2300-1.11,2013-03-04 06:10:00,
2013-03-03 22:20:00,38.3,29.7,30.23,NW,315,0.0,5.8,71,0.00,,,0.00,open2300-1.11,2013-03-04 06:20:00,
2013-03-03 22:30:00,38.1,29.9,30.23,NW,315,0.9,4.7,72,0.00,,,0.00,open2300-1.11,2013-03-04 06:30:00,
2013-03-03 22:40:00,38.1,30.2,30.23,NNW,337,0.0,5.8,73,0.00,,,0.00,open2300-1.11,2013-03-04 06:40:00,
2013-03-03 22:50:00,37.9,30.4,30.23,NW,315,1.1,8.3,74,0.00,,,0.00,open2300-1.11,2013-03-04 06:50:00,
2013-03-03 23:10:00,37.8,30.5,30.23,NW,315,0.0,7.4,75,0.00,,,0.00,open2300-1.11,2013-03-04 07:10:00,
2013-03-03 23:20:00,37.4,30.2,30.23,NNW,337,0.0,5.6,75,0.00,,,0.00,open2300-1.11,2013-03-04 07:20:00,
2013-03-03 23:30:00,37.0,29.8,30.23,NNW,337,0.0,5.6,75,0.00,,,0.00,open2300-1.11,2013-03-04 07:30:00,
2013-03-03 23:40:00,36.9,30.0,30.23,WNW,292,0.0,4.2,76,0.00,,,0.00,open2300-1.11,2013-03-04 07:40:00,
2013-03-03 23:50:00,37.0,30.2,30.23,NNW,337,6.0,7.2,76,0.00,,,0.00,open2300-1.11,2013-03-04 07:50:00,